Time;durP1;ratioP1;P1;durP2;ratioP2;P2;SDS_P1;SDS_P2;PMS_P1;PMS_P2;Temp;Humidity;BMP_temperature;BMP_pressure;BME280_temperature;BME280_humidity;BME280_pressure;Samples;Min_cycle;Max_cycle;Signal;HPM_P1;HPM_P2
2022/07/17 00:02:06;;;;;;;9.15;1.15;;;;;;;19.35;39.71;102135.13;5049237;27;96785;-71
2022/07/17 00:04:33;;;;;;;4.28;1.05;;;;;;;19.34;39.98;102136.06;5049908;27;100886;-71
2022/07/17 00:07:00;;;;;;;6.18;1.23;;;;;;;19.38;39.79;102140.31;5047250;27;98716;-70
2022/07/17 00:09:26;;;;;;;7.95;1.75;;;;;;;19.61;39.59;102141.00;5051447;27;97532;-70
2022/07/17 00:11:52;;;;;;;6.47;1.13;;;;;;;19.48;39.48;102135.41;5050216;27;98658;-71
2022/07/17 00:14:20;;;;;;;6.93;1.63;;;;;;;19.40;39.90;102134.88;5049208;27;99383;-71
2022/07/17 00:16:46;;;;;;;6.75;1.40;;;;;;;19.27;39.97;102140.00;5048677;27;102155;-70
2022/07/17 00:19:13;;;;;;;3.40;1.10;;;;;;;19.34;39.87;102136.06;5049861;27;96860;-71
2022/07/17 00:21:39;;;;;;;8.27;1.05;;;;;;;19.32;40.18;102137.06;5046290;27;96951;-70
2022/07/17 00:24:07;;;;;;;7.70;1.63;;;;;;;19.04;40.64;102142.91;5048359;27;99418;-70
2022/07/17 00:26:34;;;;;;;7.72;1.23;;;;;;;19.17;40.43;102144.06;5050920;27;97924;-70
2022/07/17 00:29:00;;;;;;;8.63;1.42;;;;;;;19.17;40.22;102144.06;5044348;27;97048;-73
2022/07/17 00:31:28;;;;;;;5.43;0.98;;;;;;;19.20;40.35;102141.22;5051867;27;96876;-70
2022/07/17 00:33:54;;;;;;;15.88;3.05;;;;;;;19.26;40.07;102140.06;5047003;27;98963;-70
2022/07/17 00:36:21;;;;;;;5.05;2.50;;;;;;;19.52;39.60;102144.16;5047008;27;99402;-69
2022/07/17 00:38:47;;;;;;;5.32;1.02;;;;;;;19.32;39.99;102139.75;5045588;27;96895;-71
2022/07/17 00:41:15;;;;;;;8.32;1.42;;;;;;;19.19;40.16;102136.81;5053300;27;97296;-70
2022/07/17 00:43:42;;;;;;;6.05;1.20;;;;;;;18.97;40.81;102145.03;5048690;27;99368;-71
2022/07/17 00:46:08;;;;;;;9.50;0.85;;;;;;;19.06;40.59;102141.03;5051910;27;98812;-71
2022/07/17 00:48:36;;;;;;;4.75;1.00;;;;;;;19.15;40.38;102139.72;5044569;27;97414;-71
2022/07/17 00:51:02;;;;;;;7.78;1.20;;;;;;;18.92;40.66;102143.50;5050149;27;98588;-70
2022/07/17 00:53:32;;;;;;;6.53;1.08;;;;;;;18.90;40.91;102134.72;5047006;27;99021;-72
2022/07/17 00:56:01;;;;;;;6.18;1.30;;;;;;;18.93;41.03;102131.88;5048585;27;99510;-72
2022/07/17 00:58:30;;;;;;;5.15;1.52;;;;;;;19.09;40.77;102135.53;5047924;27;97079;-71
2022/07/17 01:00:56;;;;;;;5.97;1.38;;;;;;;19.16;40.68;102141.47;5049999;27;96766;-71
2022/07/17 01:03:25;;;;;;;9.15;1.70;;;;;;;18.83;41.20;102135.94;5050679;27;99091;-70
2022/07/17 01:05:53;;;;;;;8.10;1.60;;;;;;;18.91;41.03;102136.41;5047325;27;99298;-72
2022/07/17 01:08:20;;;;;;;8.90;1.33;;;;;;;18.71;41.42;102135.56;5047412;27;96892;-70
2022/07/17 01:10:46;;;;;;;5.40;1.15;;;;;;;18.48;41.96;102138.44;5048378;27;96958;-71
2022/07/17 01:13:13;;;;;;;4.68;1.30;;;;;;;18.46;41.98;102140.31;5048043;27;98962;-71
2022/07/17 01:15:41;;;;;;;3.88;0.88;;;;;;;18.75;41.42;102143.47;5046042;27;99124;-72
2022/07/17 01:18:10;;;;;;;8.77;1.10;;;;;;;18.82;41.43;102136.88;5041323;27;96859;-71
2022/07/17 01:20:38;;;;;;;4.78;0.90;;;;;;;18.96;41.06;102139.78;5045855;27;96812;-70
2022/07/17 01:23:06;;;;;;;4.82;1.20;;;;;;;18.90;41.29;102132.91;5050676;27;101582;-70
2022/07/17 01:25:33;;;;;;;10.05;2.10;;;;;;;18.79;41.41;102131.66;5050102;27;98817;-70
2022/07/17 01:28:00;;;;;;;7.70;1.23;;;;;;;18.74;41.54;102128.34;5051273;27;97194;-71
2022/07/17 01:30:27;;;;;;;6.30;1.35;;;;;;;18.75;41.57;102132.75;5051581;27;97061;-71
2022/07/17 01:32:53;;;;;;;6.70;0.88;;;;;;;18.37;42.10;102129.16;5052887;27;97853;-71
2022/07/17 01:35:20;;;;;;;5.60;0.70;;;;;;;18.63;42.23;102136.88;5051728;27;96749;-70
2022/07/17 01:37:46;;;;;;;5.75;1.27;;;;;;;18.32;42.62;102132.03;5045703;27;97217;-70
2022/07/17 01:40:16;;;;;;;10.07;1.60;;;;;;;18.35;42.76;102139.94;5049142;27;97025;-71
2022/07/17 01:42:44;;;;;;;5.97;1.30;;;;;;;18.53;42.63;102144.44;5038780;27;99065;-70
2022/07/17 01:45:11;;;;;;;5.10;1.05;;;;;;;18.62;41.95;102138.69;5047552;27;97681;-70
2022/07/17 01:47:38;;;;;;;8.95;1.30;;;;;;;18.47;42.66;102135.81;5048389;27;97288;-70
2022/07/17 01:50:05;;;;;;;7.22;1.50;;;;;;;18.50;42.32;102136.56;5049855;27;97710;-70
2022/07/17 01:52:36;;;;;;;7.25;1.20;;;;;;;18.41;42.70;102134.31;5047971;27;98270;-70
2022/07/17 01:55:03;;;;;;;7.57;1.30;;;;;;;18.28;42.88;102136.69;5052155;27;98957;-71
2022/07/17 01:57:31;;;;;;;7.30;1.80;;;;;;;18.31;42.99;102135.69;5049808;27;97303;-70
2022/07/17 01:59:57;;;;;;;4.82;1.08;;;;;;;18.40;42.70;102135.25;5053219;27;96979;-70
2022/07/17 02:02:24;;;;;;;4.75;0.85;;;;;;;18.10;43.10;102128.63;5051254;27;98193;-70
2022/07/17 02:04:50;;;;;;;7.43;1.75;;;;;;;17.92;43.71;102131.16;5050724;27;99337;-69
2022/07/17 02:07:17;;;;;;;4.25;1.25;;;;;;;17.82;44.01;102132.50;5047600;27;98535;-70
2022/07/17 02:09:43;;;;;;;7.22;1.25;;;;;;;18.08;43.47;102127.81;5050050;27;97008;-70
2022/07/17 02:12:10;;;;;;;5.22;1.00;;;;;;;17.95;43.95;102140.00;5050799;27;99452;-70
2022/07/17 02:14:37;;;;;;;6.22;1.23;;;;;;;17.96;43.71;102131.91;5052297;27;97506;-70
2022/07/17 02:17:04;;;;;;;5.72;0.90;;;;;;;18.11;43.32;102130.38;5050758;27;97939;-70
2022/07/17 02:19:30;;;;;;;5.65;1.00;;;;;;;18.33;43.05;102139.13;5050749;27;96943;-71
2022/07/17 02:21:57;;;;;;;6.30;1.10;;;;;;;17.98;43.88;102126.50;5046498;27;99512;-70
2022/07/17 02:24:23;;;;;;;4.82;1.42;;;;;;;18.06;43.62;102127.88;5050020;27;99046;-70
2022/07/17 02:26:50;;;;;;;5.68;1.00;;;;;;;18.20;43.31;102132.59;5045016;27;97167;-70
2022/07/17 02:31:21;;;;;;;6.30;1.20;;;;;;;17.65;44.55;102124.38;5043869;27;96856;-70
2022/07/17 02:33:48;;;;;;;5.50;1.10;;;;;;;17.57;44.95;102134.47;5041260;27;97198;-71
2022/07/17 02:36:14;;;;;;;9.23;0.80;;;;;;;17.91;44.29;102125.91;5040045;27;98881;-71
2022/07/17 02:38:41;;;;;;;6.57;1.73;;;;;;;17.91;44.23;102134.78;5039551;27;98858;-69
2022/07/17 02:41:08;;;;;;;8.18;1.10;;;;;;;17.83;44.45;102131.59;5043142;27;96804;-69
2022/07/17 02:43:35;;;;;;;9.50;1.45;;;;;;;17.74;44.64;102131.97;5042444;27;96874;-70
2022/07/17 02:46:01;;;;;;;7.70;1.83;;;;;;;17.69;44.71;102136.66;5044942;27;101800;-69
2022/07/17 02:48:29;;;;;;;11.55;1.75;;;;;;;16.84;46.70;102139.28;5042226;27;98794;-69
2022/07/17 02:50:56;;;;;;;9.13;1.63;;;;;;;16.96;46.70;102136.13;5040192;27;97734;-70
2022/07/17 02:53:22;;;;;;;8.57;1.40;;;;;;;17.21;46.08;102149.34;5045180;27;96887;-73
2022/07/17 02:55:49;;;;;;;10.50;1.40;;;;;;;17.26;45.74;102156.28;5042505;27;98011;-70
2022/07/17 02:58:15;;;;;;;7.30;1.30;;;;;;;17.50;45.39;102151.72;5038963;27;99460;-70
2022/07/17 03:00:41;;;;;;;7.32;1.38;;;;;;;17.45;45.56;102148.38;5045679;27;96712;-71
2022/07/17 03:03:08;;;;;;;6.85;1.45;;;;;;;17.96;44.35;102150.63;5050275;27;96877;-70
2022/07/17 03:05:35;;;;;;;4.07;1.20;;;;;;;17.49;45.27;102155.31;5042173;27;99155;-70
2022/07/17 03:08:02;;;;;;;10.52;1.52;;;;;;;17.56;45.14;102156.78;5037479;27;99165;-70
2022/07/17 03:10:28;;;;;;;7.13;1.38;;;;;;;17.52;45.49;102157.88;5044328;27;97024;-70
2022/07/17 03:12:55;;;;;;;9.45;1.30;;;;;;;17.79;44.75;102154.03;5043064;27;97152;-70
2022/07/17 03:15:21;;;;;;;4.97;1.50;;;;;;;17.83;44.45;102158.31;5042024;27;97557;-71
2022/07/17 03:17:48;;;;;;;6.88;1.00;;;;;;;17.73;44.75;102153.41;5034202;27;97770;-71
2022/07/17 03:20:14;;;;;;;8.18;1.50;;;;;;;17.72;44.83;102152.53;5036794;27;96799;-71
2022/07/17 03:22:42;;;;;;;9.35;1.40;;;;;;;17.66;45.16;102152.81;5042816;27;97224;-71
2022/07/17 03:25:10;;;;;;;5.90;1.10;;;;;;;17.51;45.62;102156.13;5043252;27;97802;-71
2022/07/17 03:27:38;;;;;;;9.88;1.73;;;;;;;17.35;45.95;102157.69;5041660;27;99026;-72
2022/07/17 03:30:05;;;;;;;5.25;1.13;;;;;;;17.29;46.18;102157.94;5044154;27;96820;-71
2022/07/17 03:32:31;;;;;;;9.60;1.42;;;;;;;17.44;45.88;102168.88;5046508;27;98814;-71
2022/07/17 03:34:57;;;;;;;7.78;1.52;;;;;;;17.62;45.40;102167.25;5041149;27;100401;-70
2022/07/17 03:37:24;;;;;;;7.75;1.33;;;;;;;17.79;45.17;102167.38;5037277;27;98833;-71
2022/07/17 03:39:52;;;;;;;8.43;1.55;;;;;;;17.66;45.53;102178.66;5041636;27;96909;-70
2022/07/17 03:42:18;;;;;;;8.43;1.05;;;;;;;17.82;45.36;102182.44;5036673;27;96884;-70
2022/07/17 03:44:44;;;;;;;7.93;1.50;;;;;;;17.84;45.33;102186.81;5024916;27;99375;-70
2022/07/17 03:47:11;;;;;;;3.33;0.93;;;;;;;17.79;45.33;102196.78;5030675;27;98769;-69
2022/07/17 03:49:37;;;;;;;5.68;1.48;;;;;;;17.78;45.26;102189.75;5026046;27;97037;-70
2022/07/17 03:52:04;;;;;;;5.45;1.10;;;;;;;17.61;45.80;102199.38;5028955;27;97186;-69
2022/07/17 03:54:30;;;;;;;5.38;1.35;;;;;;;17.37;46.54;102199.44;5028758;27;99172;-70
2022/07/17 03:56:58;;;;;;;8.75;1.30;;;;;;;17.65;45.83;102204.56;5023078;28;98723;-71
2022/07/17 03:59:25;;;;;;;7.57;1.27;;;;;;;17.35;46.60;102201.31;5029608;28;97804;-71
2022/07/17 04:01:51;;;;;;;6.75;1.50;;;;;;;17.38;46.58;102200.31;5031507;27;97005;-69
2022/07/17 04:04:18;;;;;;;8.15;1.10;;;;;;;17.25;47.09;102212.44;5024878;28;99072;-70
2022/07/17 04:06:44;;;;;;;6.63;1.00;;;;;;;17.44;46.47;102216.97;5014958;27;99053;-69
2022/07/17 04:09:10;;;;;;;8.00;2.05;;;;;;;17.51;46.24;102217.59;5029659;27;97432;-70
2022/07/17 04:11:37;;;;;;;9.18;1.75;;;;;;;17.69;46.00;102219.53;5032393;27;97605;-70
2022/07/17 04:14:04;;;;;;;7.40;1.27;;;;;;;17.78;45.82;102227.16;5031418;27;99045;-71
2022/07/17 04:16:31;;;;;;;10.75;1.45;;;;;;;17.55;46.48;102235.22;5030449;27;100710;-69
2022/07/17 04:18:57;;;;;;;11.82;1.42;;;;;;;17.37;46.97;102231.50;5025534;27;97052;-73
2022/07/17 04:21:23;;;;;;;9.15;1.73;;;;;;;17.26;47.30;102232.88;5028141;28;97254;-71
2022/07/17 04:23:50;;;;;;;8.70;1.25;;;;;;;17.47;46.91;102219.50;5027330;27;97989;-71
2022/07/17 04:26:16;;;;;;;5.70;1.30;;;;;;;17.86;46.00;102226.81;5025076;27;98056;-70
2022/07/17 04:28:43;;;;;;;6.20;1.38;;;;;;;17.78;46.19;102227.16;5027072;27;97354;-70
2022/07/17 04:31:11;;;;;;;8.75;1.58;;;;;;;18.12;45.49;102225.69;5029736;27;99789;-70
2022/07/17 04:33:37;;;;;;;7.63;1.70;;;;;;;18.14;45.49;102221.16;5020152;27;99224;-70
2022/07/17 04:36:04;;;;;;;5.88;1.02;;;;;;;18.03;45.75;102228.78;5028253;28;99093;-70
2022/07/17 04:38:31;;;;;;;7.47;1.83;;;;;;;18.00;46.04;102231.59;5024175;27;96855;-69
2022/07/17 04:40:57;;;;;;;9.63;1.30;;;;;;;18.36;45.20;102232.66;5028044;27;97821;-70
2022/07/17 04:43:23;;;;;;;8.23;1.65;;;;;;;18.30;45.29;102230.25;5025959;27;98241;-70
2022/07/17 04:45:50;;;;;;;4.97;1.17;;;;;;;18.35;45.27;102233.59;5025453;27;98796;-70
2022/07/17 04:48:18;;;;;;;8.30;1.30;;;;;;;18.95;43.97;102229.97;5030033;27;97448;-71
2022/07/17 04:50:45;;;;;;;7.47;1.55;;;;;;;18.96;43.78;102234.38;5024789;27;96983;-69
2022/07/17 04:53:11;;;;;;;5.97;1.55;;;;;;;19.25;43.21;102232.97;5027090;27;98954;-70
2022/07/17 04:55:38;;;;;;;8.88;1.00;;;;;;;18.73;44.55;102234.56;5025918;27;97658;-71
2022/07/17 04:58:04;;;;;;;9.65;1.52;;;;;;;18.71;44.74;102241.78;5025553;28;98351;-70
2022/07/17 05:00:31;;;;;;;6.93;1.50;;;;;;;18.98;44.16;102245.00;5027370;27;96908;-71
2022/07/17 05:02:57;;;;;;;8.55;1.50;;;;;;;18.62;44.81;102248.47;5025526;28;98866;-70
2022/07/17 05:05:25;;;;;;;5.68;1.17;;;;;;;18.89;44.23;102245.47;5020034;27;98224;-70
2022/07/17 05:07:51;;;;;;;5.07;1.40;;;;;;;18.66;44.67;102243.81;5018344;27;96822;-70
2022/07/17 05:10:18;;;;;;;8.45;1.70;;;;;;;18.72;44.77;102246.22;5029213;27;96738;-70
2022/07/17 05:12:44;;;;;;;6.50;1.48;;;;;;;19.40;43.38;102232.25;5025622;27;97117;-71
2022/07/17 05:15:11;;;;;;;8.60;1.63;;;;;;;19.28;43.24;102238.22;5027567;27;99164;-71
2022/07/17 05:17:37;;;;;;;5.22;1.25;;;;;;;19.60;42.73;102235.78;5021264;27;97195;-71
2022/07/17 05:20:05;;;;;;;9.85;1.23;;;;;;;19.96;41.63;102239.28;5027516;27;98868;-71
2022/07/17 05:22:33;;;;;;;11.52;1.40;;;;;;;20.03;41.37;102237.16;5022849;27;97969;-70
2022/07/17 05:25:00;;;;;;;7.40;1.45;;;;;;;20.20;41.04;102245.22;5026418;27;99084;-71
2022/07/17 05:27:27;;;;;;;6.43;1.20;;;;;;;19.75;42.35;102240.41;5022575;27;96820;-71
2022/07/17 05:29:53;;;;;;;7.30;1.40;;;;;;;19.77;42.13;102236.66;5024177;28;96987;-71
2022/07/17 05:32:20;;;;;;;5.55;1.40;;;;;;;19.87;41.59;102245.13;5026792;27;99455;-70
2022/07/17 05:34:46;;;;;;;7.20;1.35;;;;;;;20.13;41.43;102242.00;5021356;27;99557;-71
2022/07/17 05:37:13;;;;;;;6.57;1.30;;;;;;;20.02;41.37;102246.19;5029440;27;97064;-70
2022/07/17 05:39:41;;;;;;;7.47;1.20;;;;;;;19.96;41.24;102246.47;5029208;27;96907;-70
2022/07/17 05:42:07;;;;;;;5.97;1.52;;;;;;;19.90;41.45;102253.88;5023996;27;98899;-71
2022/07/17 05:44:34;;;;;;;7.68;1.58;;;;;;;20.07;41.04;102255.72;5030697;27;102481;-70
2022/07/17 05:47:00;;;;;;;4.28;1.27;;;;;;;20.24;40.31;102250.34;5022280;27;97375;-70
2022/07/17 05:49:27;;;;;;;6.50;0.95;;;;;;;20.06;40.32;102262.03;5025571;27;96875;-70
2022/07/17 05:51:53;;;;;;;5.65;1.10;;;;;;;19.80;40.84;102260.69;5018213;27;99039;-71
2022/07/17 05:54:20;;;;;;;9.25;1.67;;;;;;;20.02;40.20;102273.84;5025636;27;98284;-72
2022/07/17 05:56:47;;;;;;;7.38;1.38;;;;;;;20.14;39.67;102264.31;5029963;27;96668;-71
2022/07/17 05:59:14;;;;;;;6.00;1.10;;;;;;;20.15;39.76;102272.28;5026472;28;97615;-71
2022/07/17 06:01:41;;;;;;;6.90;1.13;;;;;;;20.55;39.48;102271.09;5027552;27;98262;-71
2022/07/17 06:04:07;;;;;;;9.70;1.65;;;;;;;20.81;38.87;102276.88;5022244;27;99047;-71
2022/07/17 06:06:34;;;;;;;5.85;1.38;;;;;;;20.32;39.38;102281.28;5032223;27;97205;-70
2022/07/17 06:09:01;;;;;;;6.18;1.10;;;;;;;20.68;38.50;102274.00;5025831;27;96817;-70
2022/07/17 06:11:27;;;;;;;4.65;0.88;;;;;;;20.67;38.78;102280.34;5024329;28;98955;-70
2022/07/17 06:13:55;;;;;;;3.03;0.90;;;;;;;20.85;37.65;102276.66;5025633;27;98872;-70
2022/07/17 06:16:21;;;;;;;6.40;1.20;;;;;;;21.46;36.83;102286.72;5023010;27;96854;-71
2022/07/17 06:18:48;;;;;;;5.80;1.70;;;;;;;21.71;36.32;102278.97;5022471;27;97243;-71
2022/07/17 06:21:14;;;;;;;10.27;1.45;;;;;;;21.69;36.04;102274.63;5019857;27;96976;-70
2022/07/17 06:23:41;;;;;;;5.10;1.10;;;;;;;21.11;36.76;102283.28;5023398;27;98816;-70
2022/07/17 06:26:07;;;;;;;8.07;1.30;;;;;;;21.31;36.27;102288.47;5020832;27;96769;-71
2022/07/17 06:28:34;;;;;;;7.85;1.40;;;;;;;21.48;35.89;102285.66;5029323;27;98051;-71
2022/07/17 06:31:02;;;;;;;7.32;1.10;;;;;;;21.55;36.05;102274.56;5027725;28;97847;-71
2022/07/17 06:33:28;;;;;;;10.65;1.45;;;;;;;21.63;34.97;102278.56;5030518;27;102108;-72
2022/07/17 06:35:54;;;;;;;10.32;1.42;;;;;;;21.54;35.71;102287.13;5025924;27;96764;-71
2022/07/17 06:38:21;;;;;;;7.53;1.05;;;;;;;21.50;35.87;102280.22;5020737;27;97360;-71
2022/07/17 06:40:47;;;;;;;4.40;1.30;;;;;;;22.18;35.25;102281.59;5019286;28;101693;-70
2022/07/17 06:43:14;;;;;;;5.47;1.50;;;;;;;22.26;34.32;102279.28;5022923;28;99094;-70
2022/07/17 06:45:40;;;;;;;5.57;1.67;;;;;;;22.58;33.94;102276.44;5022312;28;96754;-70
2022/07/17 06:48:08;;;;;;;7.28;1.05;;;;;;;22.62;33.67;102284.28;5019478;28;96848;-70
2022/07/17 06:50:35;;;;;;;3.78;1.15;;;;;;;22.51;33.88;102283.22;5018858;28;98934;-70
2022/07/17 06:53:01;;;;;;;7.22;1.05;;;;;;;22.75;33.59;102279.03;5022298;27;98932;-72
2022/07/17 06:55:28;;;;;;;4.47;1.10;;;;;;;22.43;33.83;102283.66;5023429;27;97644;-70
2022/07/17 06:57:54;;;;;;;6.32;1.25;;;;;;;22.54;33.99;102281.19;5027922;27;96852;-70
2022/07/17 07:00:21;;;;;;;10.13;1.20;;;;;;;22.55;34.02;102288.31;5026042;27;98896;-70
2022/07/17 07:02:47;;;;;;;3.65;1.20;;;;;;;22.22;34.58;102287.66;5025285;27;98858;-70
2022/07/17 07:05:15;;;;;;;4.93;1.15;;;;;;;21.92;35.22;102294.84;5024955;27;97907;-70
2022/07/17 07:07:42;;;;;;;9.23;1.27;;;;;;;21.53;35.88;102301.53;5017255;27;96926;-69
2022/07/17 07:10:09;;;;;;;8.38;1.33;;;;;;;21.49;36.01;102300.00;5024965;27;97737;-70
2022/07/17 07:12:36;;;;;;;8.43;1.40;;;;;;;21.91;35.45;102306.56;5021460;27;100232;-70
2022/07/17 07:15:04;;;;;;;7.80;1.17;;;;;;;22.41;34.58;102300.88;5020776;27;97439;-71
2022/07/17 07:17:31;;;;;;;5.45;0.98;;;;;;;22.22;34.34;102312.75;5022948;28;97058;-72
2022/07/17 07:19:58;;;;;;;8.02;1.42;;;;;;;22.56;34.09;102297.25;5029965;27;103146;-70
2022/07/17 07:22:26;;;;;;;7.15;1.73;;;;;;;22.63;33.74;102304.88;5026245;27;99394;-70
2022/07/17 07:24:52;;;;;;;7.25;1.25;;;;;;;22.07;34.50;102302.88;5027957;27;96904;-70
2022/07/17 07:27:19;;;;;;;4.25;1.42;;;;;;;20.98;36.83;102309.97;5025791;27;97693;-70
2022/07/17 07:29:45;;;;;;;6.35;1.10;;;;;;;20.51;38.10;102314.31;5027960;27;101176;-72
2022/07/17 07:32:12;;;;;;;7.63;1.08;;;;;;;21.05;37.16;102315.88;5030399;27;97926;-71
2022/07/17 07:34:38;;;;;;;11.98;1.20;;;;;;;21.65;35.78;102311.63;5029215;27;98777;-71
2022/07/17 07:37:05;;;;;;;6.35;1.23;;;;;;;21.98;35.42;102311.53;5023621;27;99149;-71
2022/07/17 07:39:32;;;;;;;8.10;1.15;;;;;;;22.62;34.42;102303.13;5030401;27;98923;-71
2022/07/17 07:41:59;;;;;;;6.05;1.70;;;;;;;22.69;33.96;102300.94;5025431;28;99197;-70
2022/07/17 07:44:26;;;;;;;9.73;1.30;;;;;;;22.18;34.93;102313.03;5023142;27;97045;-71
2022/07/17 07:46:52;;;;;;;5.88;1.10;;;;;;;21.86;35.49;102315.75;5022612;27;98288;-71
2022/07/17 07:49:19;;;;;;;7.45;1.42;;;;;;;21.75;35.66;102312.81;5029333;27;97943;-71
2022/07/17 07:51:45;;;;;;;7.40;1.25;;;;;;;22.00;35.54;102324.88;5027873;27;100811;-72
2022/07/17 07:54:12;;;;;;;6.50;1.15;;;;;;;21.88;35.62;102319.22;5025378;27;97130;-71
2022/07/17 07:56:40;;;;;;;4.78;0.95;;;;;;;21.96;35.49;102321.50;5023027;28;97214;-73
2022/07/17 07:59:06;;;;;;;10.70;1.20;;;;;;;21.80;35.71;102320.59;5027907;27;98717;-72
2022/07/17 08:01:33;;;;;;;5.15;1.00;;;;;;;21.51;36.21;102324.97;5029345;27;98390;-72
2022/07/17 08:03:59;;;;;;;6.47;1.05;;;;;;;21.38;36.33;102329.31;5022958;27;97178;-71
2022/07/17 08:06:26;;;;;;;7.18;1.35;;;;;;;21.24;36.76;102327.38;5024383;27;97196;-72
2022/07/17 08:08:53;;;;;;;4.45;1.30;;;;;;;21.74;36.50;102329.91;5027604;27;98948;-70
2022/07/17 08:11:19;;;;;;;6.38;1.20;;;;;;;21.95;36.18;102332.31;5021556;27;98984;-71
2022/07/17 08:13:47;;;;;;;8.27;1.50;;;;;;;21.99;35.74;102324.00;5026185;27;96807;-71
2022/07/17 08:16:13;;;;;;;5.95;1.13;;;;;;;22.21;35.68;102331.69;5025367;27;96827;-70
2022/07/17 08:18:40;;;;;;;6.35;1.25;;;;;;;21.81;36.10;102333.13;5031612;27;98853;-71
2022/07/17 08:21:06;;;;;;;6.07;1.30;;;;;;;22.20;35.78;102333.50;5031782;27;97758;-70
2022/07/17 08:23:33;;;;;;;6.88;1.25;;;;;;;21.47;36.60;102324.28;5030707;27;97282;-71
2022/07/17 08:25:59;;;;;;;9.65;1.17;;;;;;;21.15;37.34;102335.91;5029995;27;98512;-73
2022/07/17 08:28:26;;;;;;;7.75;1.30;;;;;;;21.30;37.24;102336.94;5019259;27;97716;-72
2022/07/17 08:30:54;;;;;;;4.40;1.00;;;;;;;21.04;37.81;102331.13;5023121;27;99296;-71
2022/07/17 08:33:20;;;;;;;6.70;1.10;;;;;;;21.27;37.18;102331.72;5017837;27;96786;-71
2022/07/17 08:35:46;;;;;;;8.88;1.20;;;;;;;22.15;35.66;102337.44;5023830;27;97541;-71
2022/07/17 08:38:13;;;;;;;4.22;1.00;;;;;;;22.33;34.86;102333.66;5027366;28;98108;-71
2022/07/17 08:40:40;;;;;;;8.95;1.52;;;;;;;23.15;34.05;102328.59;5020773;28;97762;-70
2022/07/17 08:43:08;;;;;;;11.52;1.75;;;;;;;23.88;32.25;102322.97;5022963;28;97411;-71
2022/07/17 08:45:35;;;;;;;6.68;1.20;;;;;;;24.11;32.20;102328.56;5023863;27;97108;-70
2022/07/17 08:48:03;;;;;;;6.00;2.08;;;;;;;24.41;31.24;102335.59;5024770;27;98968;-70
2022/07/17 08:50:31;;;;;;;7.50;1.23;;;;;;;24.18;31.49;102339.81;5023604;27;98799;-71
2022/07/17 08:52:59;;;;;;;5.93;1.40;;;;;;;23.94;32.18;102336.06;5017612;28;98820;-72
2022/07/17 08:55:25;;;;;;;5.93;1.42;;;;;;;23.86;32.03;102339.28;5022685;28;97324;-69
2022/07/17 08:57:52;;;;;;;12.30;1.48;;;;;;;23.51;32.50;102338.00;5019829;27;99111;-70
2022/07/17 09:00:22;;;;;;;5.68;1.30;;;;;;;23.17;33.19;102331.19;5029385;27;101963;-70
2022/07/17 09:02:57;;;;;;;4.03;1.50;;;;;;;23.59;32.55;102335.69;5027185;27;97645;-72
2022/07/17 09:05:28;;;;;;;7.80;1.55;;;;;;;24.07;32.03;102336.97;5023015;27;97203;-71
2022/07/17 09:07:55;;;;;;;4.10;1.02;;;;;;;24.42;31.38;102337.31;5019120;27;99308;-70
2022/07/17 09:10:33;;;;;;;5.68;1.48;;;;;;;23.88;31.84;102331.94;5031731;27;98898;-70
2022/07/17 09:13:00;;;;;;;6.70;0.90;;;;;;;24.23;31.58;102338.56;5030064;27;97528;-71
2022/07/17 09:15:27;;;;;;;4.90;1.35;;;;;;;23.69;32.21;102344.94;5020891;28;96951;-70
2022/07/17 09:17:55;;;;;;;3.40;0.90;;;;;;;23.60;32.53;102343.69;5016748;27;98962;-70
2022/07/17 09:20:22;;;;;;;5.32;0.93;;;;;;;23.92;32.41;102349.66;5022843;27;98963;-70
2022/07/17 09:23:01;;;;;;;8.63;1.33;;;;;;;23.92;32.39;102341.56;5024777;27;96874;-70
2022/07/17 09:25:36;;;;;;;6.35;1.23;;;;;;;23.83;31.92;102328.66;5026059;28;97138;-70
2022/07/17 09:28:04;;;;;;;7.82;1.05;;;;;;;23.96;31.66;102337.69;5022485;28;98872;-71
2022/07/17 09:30:32;;;;;;;3.10;0.95;;;;;;;23.35;32.95;102333.59;5027105;27;101346;-71
2022/07/17 09:32:59;;;;;;;3.47;1.00;;;;;;;23.05;33.69;102335.50;5028963;27;97342;-70
2022/07/17 09:35:26;;;;;;;7.47;1.25;;;;;;;23.20;33.41;102331.84;5031754;27;97237;-70
2022/07/17 09:37:54;;;;;;;7.47;1.13;;;;;;;23.57;32.82;102332.22;5026076;27;98986;-69
2022/07/17 09:43:08;;;;;;;4.35;1.02;;;;;;;23.58;32.58;102328.56;5025856;28;96819;-69
2022/07/17 09:45:35;;;;;;;3.17;1.05;;;;;;;22.96;33.60;102328.03;5026091;27;96812;-70
2022/07/17 09:48:04;;;;;;;4.38;1.10;;;;;;;22.52;34.39;102328.00;5027395;27;99016;-72
2022/07/17 09:50:32;;;;;;;3.72;1.10;;;;;;;23.34;33.45;102326.47;5026378;27;99192;-70
2022/07/17 09:52:59;;;;;;;5.15;1.17;;;;;;;23.67;32.80;102336.94;5023092;27;97222;-69
2022/07/17 09:55:30;;;;;;;7.30;1.25;;;;;;;24.20;32.33;102332.53;5021343;27;96814;-72
2022/07/17 09:57:59;;;;;;;9.07;1.40;;;;;;;23.79;32.52;102332.56;5020497;27;98337;-71
2022/07/17 10:00:26;;;;;;;7.25;1.08;;;;;;;24.13;32.50;102332.03;5024719;28;99210;-71
2022/07/17 10:02:53;;;;;;;4.40;0.90;;;;;;;24.23;31.68;102335.00;5024335;27;96792;-71
2022/07/17 10:05:20;;;;;;;3.88;1.48;;;;;;;24.15;31.80;102335.50;5020714;28;96905;-71
2022/07/17 10:07:47;;;;;;;6.70;2.03;;;;;;;24.50;31.06;102326.84;5019366;27;97700;-72
2022/07/17 10:10:15;;;;;;;8.45;1.75;;;;;;;24.39;30.99;102333.00;5025960;27;100713;-71
2022/07/17 10:12:45;;;;;;;7.22;1.67;;;;;;;24.08;31.86;102323.38;5017474;27;101554;-72
2022/07/17 10:15:13;;;;;;;9.55;1.60;;;;;;;23.77;32.31;102323.69;5026551;28;98612;-70
2022/07/17 10:17:39;;;;;;;5.45;1.13;;;;;;;23.17;33.31;102310.47;5027635;27;101671;-71
2022/07/17 10:20:07;;;;;;;7.57;1.60;;;;;;;23.84;32.48;102330.41;5021231;27;100565;-71
2022/07/17 10:22:41;;;;;;;4.95;0.95;;;;;;;;;;5023195;27;97220;-72
2022/07/17 10:25:08;;;;;;;7.25;1.50;;;;;;;24.32;31.89;102309.19;5018942;27;98357;-71
2022/07/17 10:27:46;;;;;;;8.27;1.60;;;;;;;24.67;31.20;102321.16;5023807;27;98950;-72
2022/07/17 10:30:19;;;;;;;9.60;1.65;;;;;;;24.56;31.25;102321.00;5027446;27;98881;-71
2022/07/17 10:32:51;;;;;;;7.65;1.00;;;;;;;24.44;31.25;102321.84;5020766;27;96811;-72
2022/07/17 10:35:18;;;;;;;8.40;1.45;;;;;;;24.49;31.02;102309.75;5021318;28;98458;-72
2022/07/17 10:37:45;;;;;;;3.92;1.10;;;;;;;24.85;31.15;102321.69;5023199;27;98920;-71
2022/07/17 10:40:13;;;;;;;8.23;1.40;;;;;;;24.93;30.80;102317.50;5021271;28;97576;-71
2022/07/17 10:42:45;;;;;;;5.18;1.10;;;;;;;24.17;31.58;102317.34;5010810;27;97311;-71
2022/07/17 10:45:15;;;;;;;6.13;1.10;;;;;;;23.79;32.21;102321.75;5015190;27;98300;-72
2022/07/17 10:47:53;;;;;;;5.82;1.23;;;;;;;23.71;32.59;102307.88;5018525;28;100811;-71
2022/07/17 10:50:24;;;;;;;5.40;1.33;;;;;;;24.06;32.57;102308.25;5023219;27;97780;-71
2022/07/17 10:53:13;;;;;;;7.53;1.38;;;;;;;24.49;31.06;102319.69;5013832;27;97377;-71
2022/07/17 10:55:41;;;;;;;6.78;2.20;;;;;;;24.56;31.03;102312.91;5020741;27;99200;-72
2022/07/17 10:58:23;;;;;;;4.25;1.40;;;;;;;24.94;29.98;102312.97;5026196;27;98885;-71
2022/07/17 11:01:10;;;;;;;4.50;1.20;;;;;;;25.04;29.67;102308.59;5025131;27;98977;-71
2022/07/17 11:03:39;;;;;;;4.35;1.55;;;;;;;25.06;29.89;102311.22;5029629;27;97773;-71
2022/07/17 11:06:12;;;;;;;10.80;1.50;;;;;;;25.25;29.64;102311.59;5021048;27;96892;-71
2022/07/17 11:08:46;;;;;;;6.28;1.40;;;;;;;25.03;29.57;102304.16;5019611;27;99074;-70
2022/07/17 11:11:13;;;;;;;6.22;1.50;;;;;;;24.90;29.85;102300.63;5025419;27;98977;-71
2022/07/17 11:13:39;;;;;;;7.63;1.42;;;;;;;24.61;30.37;102299.97;5030808;27;96827;-71
2022/07/17 11:16:07;;;;;;;7.13;1.38;;;;;;;24.35;30.49;102317.09;5018216;27;97206;-70
2022/07/17 11:18:35;;;;;;;8.65;1.30;;;;;;;24.51;30.49;102309.66;5020546;27;101162;-72
2022/07/17 11:21:03;;;;;;;8.27;1.55;;;;;;;24.10;31.17;102304.34;5023729;27;96817;-70
2022/07/17 11:23:32;;;;;;;6.43;1.30;;;;;;;23.99;31.43;102310.50;5028142;27;97094;-70
2022/07/17 11:26:01;;;;;;;5.47;0.95;;;;;;;23.44;32.63;102311.41;5024498;27;97467;-70
2022/07/17 11:28:36;;;;;;;7.60;1.40;;;;;;;23.63;32.66;102311.09;5022497;27;101816;-72
2022/07/17 11:31:16;;;;;;;10.05;1.67;;;;;;;24.01;31.93;102297.75;5022083;27;99166;-71